createdAt,value
2023-06-27T00:02:05.716Z,48.20
2023-06-27T00:04:33.249Z,48.40
2023-06-27T00:07:00.610Z,48.60
2023-06-27T00:09:28.068Z,48.40
2023-06-27T00:11:55.451Z,47.80
2023-06-27T00:14:22.978Z,48.00
2023-06-27T00:16:53.011Z,48.00
2023-06-27T00:19:20.480Z,47.70
2023-06-27T00:21:47.886Z,48.50
2023-06-27T00:24:15.269Z,47.80
2023-06-27T00:26:43.078Z,48.20
2023-06-27T00:29:10.483Z,47.70
2023-06-27T00:31:37.898Z,48.00
2023-06-27T00:34:07.821Z,48.20
2023-06-27T00:36:35.260Z,48.90
2023-06-27T00:39:02.593Z,47.90
2023-06-27T00:41:30.210Z,48.10
2023-06-27T00:43:58.771Z,48.50
2023-06-27T00:46:38.138Z,48.60
2023-06-27T00:49:10.294Z,48.60
2023-06-27T00:51:41.003Z,48.60
2023-06-27T00:54:08.805Z,49.00
2023-06-27T00:56:37.453Z,49.10
2023-06-27T00:59:06.607Z,49.00
2023-06-27T01:01:35.593Z,49.00
2023-06-27T01:04:04.985Z,48.90
2023-06-27T01:06:54.353Z,49.20
2023-06-27T01:09:50.203Z,49.00
2023-06-27T01:12:41.196Z,48.90
2023-06-27T01:15:09.580Z,49.10
2023-06-27T01:17:38.666Z,49.10
2023-06-27T01:20:10.181Z,49.20
2023-06-27T01:22:45.250Z,49.60
2023-06-27T01:25:14.036Z,49.60
2023-06-27T01:27:41.311Z,49.90
2023-06-27T01:30:10.039Z,49.50
2023-06-27T01:32:49.992Z,49.50
2023-06-27T01:35:48.795Z,50.50
2023-06-27T01:38:22.125Z,50.30
2023-06-27T01:40:54.921Z,50.50
2023-06-27T01:43:24.013Z,50.60
2023-06-27T01:45:52.714Z,50.50
2023-06-27T01:48:21.546Z,51.00
2023-06-27T01:50:55.523Z,50.00
2023-06-27T01:53:23.374Z,51.10
2023-06-27T01:55:50.994Z,50.80
2023-06-27T01:58:19.952Z,50.50
2023-06-27T02:00:47.526Z,51.00
2023-06-27T02:03:15.575Z,50.40
2023-06-27T02:05:43.032Z,50.70
2023-06-27T02:08:10.438Z,51.40
2023-06-27T02:10:37.939Z,51.70
2023-06-27T02:13:05.354Z,51.80
2023-06-27T02:15:32.780Z,51.80
2023-06-27T02:18:06.116Z,51.30
2023-06-27T02:20:33.710Z,52.40
2023-06-27T02:23:01.322Z,51.70
2023-06-27T02:25:28.788Z,52.30
2023-06-27T02:27:56.290Z,52.20
2023-06-27T02:30:23.953Z,52.90
2023-06-27T02:32:52.843Z,52.90
2023-06-27T02:35:20.271Z,52.50
2023-06-27T02:37:50.758Z,53.50
2023-06-27T02:40:18.651Z,54.00
2023-06-27T02:42:46.049Z,52.00
2023-06-27T02:45:13.576Z,52.80
2023-06-27T02:47:41.010Z,52.60
2023-06-27T02:50:09.311Z,52.20
2023-06-27T02:52:36.726Z,52.70
2023-06-27T02:55:04.341Z,53.10
2023-06-27T02:57:31.752Z,53.00
2023-06-27T03:00:01.139Z,52.80
2023-06-27T03:02:28.650Z,53.70
2023-06-27T03:04:56.180Z,53.20
2023-06-27T03:07:23.890Z,54.00
2023-06-27T03:09:51.643Z,52.60
2023-06-27T03:12:19.053Z,52.70
2023-06-27T03:14:46.503Z,53.20
2023-06-27T03:17:13.953Z,53.80
2023-06-27T03:19:45.048Z,54.30
2023-06-27T03:22:15.451Z,55.10
2023-06-27T03:24:43.242Z,55.10
2023-06-27T03:27:10.648Z,56.10
2023-06-27T03:29:41.070Z,56.30
2023-06-27T03:32:11.713Z,56.60
2023-06-27T03:34:42.014Z,56.30
2023-06-27T03:37:10.391Z,57.00
2023-06-27T03:39:38.009Z,57.30
2023-06-27T03:42:06.178Z,56.80
2023-06-27T03:44:35.185Z,56.40
2023-06-27T03:47:02.633Z,55.50
2023-06-27T03:49:29.992Z,55.10
2023-06-27T03:51:57.587Z,55.50
2023-06-27T03:54:24.958Z,56.10
2023-06-27T03:56:52.356Z,55.80
2023-06-27T03:59:19.809Z,56.30
2023-06-27T04:01:48.665Z,55.20
2023-06-27T04:04:17.482Z,54.70
2023-06-27T04:06:45.000Z,54.50
2023-06-27T04:09:13.475Z,54.90
2023-06-27T04:11:41.226Z,55.30
2023-06-27T04:14:08.592Z,56.20
2023-06-27T04:16:37.812Z,56.30
2023-06-27T04:19:06.506Z,56.40
2023-06-27T04:21:34.113Z,56.00
2023-06-27T04:24:03.036Z,55.40
2023-06-27T04:26:32.292Z,54.50
2023-06-27T04:28:59.796Z,55.20
2023-06-27T04:31:27.242Z,55.40
2023-06-27T04:34:00.713Z,56.20
2023-06-27T04:36:28.452Z,56.50
2023-06-27T04:38:56.088Z,55.20
2023-06-27T04:41:23.854Z,55.40
2023-06-27T04:43:51.888Z,55.90
2023-06-27T04:46:19.597Z,57.10
2023-06-27T04:48:47.685Z,56.30
2023-06-27T04:51:15.041Z,56.40
2023-06-27T04:53:42.511Z,58.00
2023-06-27T04:56:09.888Z,57.00
2023-06-27T04:58:37.749Z,57.80
2023-06-27T05:01:05.145Z,58.70
2023-06-27T05:03:32.534Z,58.50
2023-06-27T05:05:59.974Z,57.70
2023-06-27T05:08:27.894Z,58.20
2023-06-27T05:10:55.306Z,57.30
2023-06-27T05:13:22.931Z,57.20
2023-06-27T05:15:51.270Z,56.50
2023-06-27T05:18:18.828Z,56.10
2023-06-27T05:20:48.934Z,56.10
2023-06-27T05:23:16.350Z,55.70
2023-06-27T05:25:44.287Z,55.50
2023-06-27T05:28:11.939Z,54.90
2023-06-27T05:30:40.167Z,55.60
2023-06-27T05:33:07.683Z,56.10
2023-06-27T05:35:35.184Z,56.50
2023-06-27T05:38:02.722Z,56.80
2023-06-27T05:40:30.428Z,56.60
2023-06-27T05:42:57.937Z,57.00
2023-06-27T05:45:26.971Z,57.00
2023-06-27T05:47:54.571Z,56.40
2023-06-27T05:50:22.113Z,56.40
2023-06-27T05:52:49.792Z,55.40
2023-06-27T05:55:17.567Z,55.50
2023-06-27T05:57:45.024Z,55.10
2023-06-27T06:00:14.776Z,55.50
2023-06-27T06:02:46.282Z,54.40
2023-06-27T06:05:15.790Z,55.00
2023-06-27T06:07:44.146Z,54.80
2023-06-27T06:10:12.658Z,53.10
2023-06-27T06:12:41.460Z,52.20
2023-06-27T06:15:09.064Z,51.30
2023-06-27T06:17:36.627Z,51.70
2023-06-27T06:20:21.931Z,52.50
2023-06-27T06:22:49.316Z,51.70
2023-06-27T06:25:18.074Z,51.40
2023-06-27T06:27:45.419Z,49.70
2023-06-27T06:30:13.221Z,49.00
2023-06-27T06:32:41.343Z,49.10
2023-06-27T06:35:09.461Z,47.90
2023-06-27T06:37:37.412Z,48.10
2023-06-27T06:40:05.455Z,47.40
2023-06-27T06:42:32.840Z,47.90
2023-06-27T06:45:00.601Z,47.90
2023-06-27T06:47:28.266Z,48.10
2023-06-27T06:49:55.670Z,48.20
2023-06-27T06:52:23.117Z,47.80
2023-06-27T06:54:50.639Z,47.10
2023-06-27T06:57:17.969Z,46.70
2023-06-27T06:59:45.768Z,46.80
2023-06-27T07:02:13.137Z,45.60
2023-06-27T07:04:40.631Z,46.30
2023-06-27T07:07:08.039Z,44.50
2023-06-27T07:09:35.456Z,45.10
2023-06-27T07:12:02.993Z,44.90
2023-06-27T07:14:30.348Z,45.40
2023-06-27T07:16:58.123Z,44.90
2023-06-27T07:19:25.490Z,44.30
2023-06-27T07:21:53.079Z,43.60
2023-06-27T07:24:20.507Z,43.20
2023-06-27T07:26:48.467Z,42.20
2023-06-27T07:29:18.949Z,42.90
2023-06-27T07:31:46.486Z,42.00
2023-06-27T07:34:14.035Z,42.50
2023-06-27T07:36:41.409Z,41.70
2023-06-27T07:39:09.270Z,41.50
2023-06-27T07:41:36.606Z,41.10
2023-06-27T07:44:04.105Z,39.00
2023-06-27T07:46:31.903Z,39.70
2023-06-27T07:49:00.949Z,40.10
2023-06-27T07:51:28.641Z,39.80
2023-06-27T07:53:57.748Z,40.80
2023-06-27T07:56:25.360Z,39.90
2023-06-27T07:58:53.226Z,40.50
2023-06-27T08:01:21.105Z,38.50
2023-06-27T08:03:48.675Z,38.80
2023-06-27T08:06:16.208Z,39.80
2023-06-27T08:08:43.706Z,39.00
2023-06-27T08:11:11.451Z,38.50
2023-06-27T08:13:42.516Z,38.40
2023-06-27T08:16:11.069Z,38.20
2023-06-27T08:18:38.526Z,37.10
2023-06-27T08:21:06.194Z,36.30
2023-06-27T08:23:33.523Z,35.80
2023-06-27T08:26:01.321Z,36.10
2023-06-27T08:28:29.108Z,35.00
2023-06-27T08:30:58.366Z,33.90
2023-06-27T08:33:26.182Z,34.10
2023-06-27T08:35:53.635Z,33.70
2023-06-27T08:38:24.319Z,33.30
2023-06-27T08:40:56.009Z,30.50
2023-06-27T08:43:26.111Z,32.40
2023-06-27T08:45:55.416Z,32.50
2023-06-27T08:48:23.509Z,32.80
2023-06-27T08:50:54.084Z,34.00
2023-06-27T08:53:29.637Z,33.40
2023-06-27T08:56:06.307Z,32.00
2023-06-27T08:58:48.781Z,33.40
2023-06-27T09:01:16.299Z,34.10
2023-06-27T09:03:43.894Z,35.20
2023-06-27T09:06:13.770Z,33.80
2023-06-27T09:08:42.257Z,34.20
2023-06-27T09:11:11.305Z,34.50
2023-06-27T09:13:39.231Z,34.60
2023-06-27T09:16:07.937Z,31.70
2023-06-27T09:18:37.069Z,32.70
2023-06-27T09:21:05.046Z,32.80
2023-06-27T09:23:32.607Z,32.70
2023-06-27T09:26:13.767Z,32.10
2023-06-27T09:28:52.194Z,32.30
2023-06-27T09:31:23.777Z,31.60
2023-06-27T09:34:01.756Z,31.20
2023-06-27T09:39:09.846Z,31.10
2023-06-27T09:41:46.118Z,30.90
2023-06-27T09:44:26.650Z,32.10
2023-06-27T09:46:57.305Z,33.20
2023-06-27T09:49:29.512Z,33.20
2023-06-27T09:51:57.428Z,32.60
2023-06-27T09:54:27.345Z,33.40
2023-06-27T09:56:57.627Z,33.40
2023-06-27T09:59:30.375Z,33.60
2023-06-27T10:01:57.772Z,32.60
2023-06-27T10:06:56.242Z,33.60
2023-06-27T10:09:23.991Z,32.90
2023-06-27T10:11:51.621Z,32.10
2023-06-27T10:14:21.604Z,32.60
2023-06-27T10:16:50.380Z,32.90
2023-06-27T10:19:18.174Z,34.60
2023-06-27T10:21:45.554Z,35.00
2023-06-27T10:24:14.761Z,34.20
2023-06-27T10:26:49.730Z,35.00
2023-06-27T10:29:17.428Z,34.70
2023-06-27T10:31:51.135Z,35.40
2023-06-27T10:34:25.476Z,34.40
2023-06-27T10:36:55.834Z,33.90
2023-06-27T10:39:31.240Z,32.80
2023-06-27T10:42:02.725Z,33.90
2023-06-27T10:44:31.360Z,33.80
2023-06-27T10:47:17.176Z,32.40
2023-06-27T10:49:50.088Z,33.10
2023-06-27T10:52:22.022Z,33.40
2023-06-27T10:55:14.552Z,35.30
2023-06-27T10:57:44.448Z,34.10
2023-06-27T11:00:16.302Z,33.70
2023-06-27T11:02:45.794Z,33.50
2023-06-27T11:05:17.832Z,33.50
2023-06-27T11:07:56.117Z,33.20
2023-06-27T11:10:27.913Z,31.70
2023-06-27T11:13:16.633Z,32.50
2023-06-27T11:15:46.149Z,33.10
2023-06-27T11:18:18.039Z,32.70
2023-06-27T11:20:46.365Z,30.00
2023-06-27T11:23:16.053Z,30.70
2023-06-27T11:25:45.988Z,33.10
2023-06-27T11:28:24.750Z,31.10
2023-06-27T11:31:00.305Z,30.70
2023-06-27T11:33:28.080Z,31.90
2023-06-27T11:35:59.902Z,31.20
2023-06-27T11:38:28.322Z,30.80
2023-06-27T11:40:55.792Z,30.00
2023-06-27T11:43:23.366Z,30.00
2023-06-27T11:45:53.480Z,31.40
2023-06-27T11:48:21.350Z,29.20
2023-06-27T11:50:56.252Z,29.20
2023-06-27T11:53:27.528Z,30.90
2023-06-27T11:58:31.778Z,30.70
2023-06-27T12:01:00.995Z,30.40
2023-06-27T12:03:36.834Z,32.40
2023-06-27T12:06:04.512Z,30.00
2023-06-27T12:08:36.133Z,29.70
2023-06-27T12:11:04.647Z,30.60
2023-06-27T12:13:42.920Z,30.40
2023-06-27T12:16:33.884Z,29.10
2023-06-27T12:19:11.970Z,30.90
2023-06-27T12:21:39.397Z,30.70
2023-06-27T12:24:07.192Z,30.00
2023-06-27T12:26:34.550Z,29.40
2023-06-27T12:29:05.739Z,29.40
2023-06-27T12:31:35.282Z,29.30
2023-06-27T12:34:04.009Z,29.20
2023-06-27T12:36:34.845Z,28.30
2023-06-27T12:39:02.519Z,29.50
2023-06-27T12:41:30.989Z,28.80
2023-06-27T12:43:58.498Z,29.30
2023-06-27T12:46:26.060Z,29.50
2023-06-27T12:48:53.710Z,30.00
2023-06-27T12:51:22.681Z,28.90
2023-06-27T12:53:50.250Z,28.80
2023-06-27T12:56:19.107Z,29.70
2023-06-27T12:58:49.402Z,29.60
2023-06-27T13:01:24.501Z,28.60
2023-06-27T13:03:52.158Z,29.20
2023-06-27T13:06:19.564Z,30.00
2023-06-27T13:08:47.445Z,29.30
2023-06-27T13:11:16.385Z,29.10
2023-06-27T13:13:43.867Z,30.00
2023-06-27T13:16:16.487Z,30.00
2023-06-27T13:18:46.933Z,29.70
2023-06-27T13:21:15.177Z,29.20
2023-06-27T13:23:42.551Z,30.00
2023-06-27T13:26:10.590Z,29.90
2023-06-27T13:28:37.944Z,29.60
2023-06-27T13:31:06.285Z,30.20
2023-06-27T13:33:34.230Z,30.30
2023-06-27T13:36:02.213Z,30.90
2023-06-27T13:38:29.593Z,30.10
2023-06-27T13:40:57.169Z,30.90
2023-06-27T13:43:25.190Z,29.90
2023-06-27T13:45:56.538Z,30.20
2023-06-27T13:48:24.209Z,30.00
2023-06-27T13:50:55.066Z,30.00
2023-06-27T13:53:23.521Z,30.20
2023-06-27T13:55:51.290Z,30.50
2023-06-27T13:58:19.944Z,30.60
2023-06-27T14:00:51.271Z,30.60
2023-06-27T14:03:21.663Z,30.20
2023-06-27T14:05:49.333Z,29.90
2023-06-27T14:08:17.181Z,30.40
2023-06-27T14:10:45.297Z,31.00
2023-06-27T14:13:13.211Z,30.60
2023-06-27T14:15:40.715Z,31.30
2023-06-27T14:18:08.453Z,31.50
2023-06-27T14:20:37.057Z,31.00
2023-06-27T14:23:05.807Z,31.40
2023-06-27T14:25:33.507Z,31.10
2023-06-27T14:28:00.980Z,30.80
2023-06-27T14:30:29.699Z,30.80
2023-06-27T14:32:58.079Z,31.60
2023-06-27T14:35:25.671Z,31.50
2023-06-27T14:37:53.114Z,31.60
2023-06-27T14:40:20.975Z,32.00
2023-06-27T14:42:48.592Z,32.20
2023-06-27T14:45:16.696Z,31.20
2023-06-27T14:47:44.938Z,32.20
2023-06-27T14:50:12.427Z,31.80
2023-06-27T14:52:42.792Z,31.50
2023-06-27T14:55:10.394Z,32.50
2023-06-27T14:57:38.201Z,32.20
2023-06-27T15:00:06.698Z,31.80
2023-06-27T15:02:34.123Z,31.50
2023-06-27T15:05:08.325Z,32.10
2023-06-27T15:07:35.948Z,32.30
2023-06-27T15:10:03.733Z,31.40
2023-06-27T15:12:32.899Z,32.00
2023-06-27T15:15:02.899Z,32.10
2023-06-27T15:17:32.021Z,31.90
2023-06-27T15:20:01.150Z,31.30
2023-06-27T15:22:28.816Z,32.10
2023-06-27T15:24:56.309Z,31.80
2023-06-27T15:27:23.831Z,33.20
2023-06-27T15:29:51.262Z,32.70
2023-06-27T15:32:18.715Z,32.60
2023-06-27T15:34:46.624Z,32.40
2023-06-27T15:37:14.169Z,33.00
2023-06-27T15:39:41.707Z,32.60
2023-06-27T15:42:09.247Z,32.10
2023-06-27T15:44:39.461Z,32.30
2023-06-27T15:47:13.357Z,32.70
2023-06-27T15:49:41.041Z,32.00
2023-06-27T15:52:09.414Z,33.10
2023-06-27T15:54:37.339Z,34.00
2023-06-27T15:57:07.524Z,33.20
2023-06-27T15:59:35.418Z,33.20
2023-06-27T16:02:04.042Z,33.20
2023-06-27T16:04:31.865Z,33.70
2023-06-27T16:06:59.285Z,33.10
2023-06-27T16:09:26.697Z,33.60
2023-06-27T16:11:54.661Z,34.10
2023-06-27T16:14:22.338Z,33.80
2023-06-27T16:16:50.303Z,33.10
2023-06-27T16:19:17.686Z,33.50
2023-06-27T16:21:45.119Z,33.60
2023-06-27T16:24:12.791Z,34.30
2023-06-27T16:26:40.594Z,35.10
2023-06-27T16:29:08.129Z,33.80
2023-06-27T16:31:38.909Z,34.00
2023-06-27T16:34:12.485Z,33.60
2023-06-27T16:36:40.342Z,33.50
2023-06-27T16:39:07.814Z,33.60
2023-06-27T16:41:36.864Z,34.10
2023-06-27T16:44:07.023Z,34.50
2023-06-27T16:46:38.397Z,33.30
2023-06-27T16:49:09.295Z,33.70
2023-06-27T16:51:36.696Z,33.30
2023-06-27T16:54:04.261Z,34.80
2023-06-27T16:56:31.881Z,33.40
2023-06-27T16:58:59.703Z,33.80
2023-06-27T17:01:27.338Z,33.60
2023-06-27T17:03:55.123Z,34.00
2023-06-27T17:06:22.597Z,34.10
2023-06-27T17:08:50.333Z,34.60
2023-06-27T17:11:18.330Z,35.30
2023-06-27T17:13:48.996Z,34.70
2023-06-27T17:16:16.793Z,34.10
2023-06-27T17:18:44.549Z,34.80
2023-06-27T17:21:11.880Z,34.80
2023-06-27T17:23:40.329Z,34.10
2023-06-27T17:26:08.119Z,34.10
2023-06-27T17:28:35.874Z,33.80
2023-06-27T17:31:03.329Z,33.80
2023-06-27T17:33:32.654Z,34.40
2023-06-27T17:36:00.138Z,33.70
2023-06-27T17:38:27.507Z,34.40
2023-06-27T17:40:55.973Z,33.50
2023-06-27T17:43:28.670Z,34.10
2023-06-27T17:45:59.283Z,33.80
2023-06-27T17:48:26.795Z,34.80
2023-06-27T17:50:55.257Z,34.40
2023-06-27T17:53:22.786Z,35.10
2023-06-27T17:55:50.211Z,34.80
2023-06-27T17:58:17.674Z,35.00
2023-06-27T18:00:45.785Z,34.40
2023-06-27T18:03:13.462Z,34.70
2023-06-27T18:05:41.248Z,34.50
2023-06-27T18:08:21.103Z,34.90
2023-06-27T18:10:49.161Z,35.00
2023-06-27T18:13:17.030Z,35.20
2023-06-27T18:15:44.523Z,35.50
2023-06-27T18:18:12.111Z,35.40
2023-06-27T18:20:40.465Z,36.00
2023-06-27T18:23:09.525Z,36.60
2023-06-27T18:25:37.906Z,36.80
2023-06-27T18:28:05.547Z,37.40
2023-06-27T18:30:33.182Z,37.70
2023-06-27T18:33:06.089Z,37.90
2023-06-27T18:35:36.688Z,38.30
2023-06-27T18:38:04.477Z,38.30
2023-06-27T18:40:31.869Z,39.00
2023-06-27T18:42:59.794Z,38.70
2023-06-27T18:45:29.048Z,38.70
2023-06-27T18:47:57.405Z,38.90
2023-06-27T18:50:24.877Z,39.20
2023-06-27T18:52:53.271Z,39.20
2023-06-27T18:55:20.667Z,39.50
2023-06-27T18:57:48.813Z,39.40
2023-06-27T19:00:18.033Z,39.40
2023-06-27T19:02:46.106Z,39.90
2023-06-27T19:05:13.666Z,40.20
2023-06-27T19:07:41.541Z,39.90
2023-06-27T19:10:09.643Z,40.10
2023-06-27T19:12:38.067Z,39.80
2023-06-27T19:15:06.391Z,40.40
2023-06-27T19:17:33.952Z,40.40
2023-06-27T19:20:01.933Z,40.20
2023-06-27T19:22:29.901Z,40.30
2023-06-27T19:24:57.306Z,40.40
2023-06-27T19:27:24.720Z,40.80
2023-06-27T19:29:52.148Z,41.00
2023-06-27T19:32:21.515Z,40.70
2023-06-27T19:34:48.940Z,40.80
2023-06-27T19:37:16.639Z,40.80
2023-06-27T19:39:47.911Z,40.90
2023-06-27T19:42:15.627Z,41.00
2023-06-27T19:44:43.323Z,41.40
2023-06-27T19:47:10.642Z,41.70
2023-06-27T19:49:38.148Z,42.10
2023-06-27T19:52:08.317Z,41.60
2023-06-27T19:54:35.764Z,41.40
2023-06-27T19:57:12.322Z,41.50
2023-06-27T19:59:40.715Z,41.60
2023-06-27T20:02:08.734Z,41.70
2023-06-27T20:04:39.827Z,41.40
2023-06-27T20:07:14.665Z,41.50
2023-06-27T20:09:51.184Z,41.80
2023-06-27T20:12:20.310Z,42.00
2023-06-27T20:14:48.769Z,42.10
2023-06-27T20:17:16.295Z,42.40
2023-06-27T20:19:44.813Z,42.90
2023-06-27T20:22:13.277Z,42.40
2023-06-27T20:24:40.798Z,42.00
2023-06-27T20:27:10.165Z,42.10
2023-06-27T20:29:37.573Z,41.90
2023-06-27T20:32:07.332Z,42.10
2023-06-27T20:34:35.349Z,42.20
2023-06-27T20:37:02.717Z,42.50
2023-06-27T20:39:31.875Z,42.60
2023-06-27T20:41:59.328Z,42.40
2023-06-27T20:44:27.794Z,42.70
2023-06-27T20:46:55.250Z,42.40
2023-06-27T20:49:22.650Z,42.70
2023-06-27T20:51:50.268Z,42.40
2023-06-27T20:54:20.878Z,42.30
2023-06-27T20:56:50.938Z,42.40
2023-06-27T20:59:19.878Z,42.90
2023-06-27T21:01:47.362Z,42.60
2023-06-27T21:04:14.850Z,42.80
2023-06-27T21:06:42.302Z,42.70
2023-06-27T21:09:10.986Z,43.00
2023-06-27T21:11:38.631Z,43.00
2023-06-27T21:14:08.623Z,42.80
2023-06-27T21:16:37.171Z,42.80
2023-06-27T21:19:05.056Z,42.80
2023-06-27T21:21:32.563Z,42.80
2023-06-27T21:23:59.892Z,43.40
2023-06-27T21:26:27.400Z,43.30
2023-06-27T21:28:54.802Z,42.40
2023-06-27T21:31:22.235Z,43.00
2023-06-27T21:33:50.438Z,44.00
2023-06-27T21:36:18.199Z,42.90
2023-06-27T21:38:46.230Z,42.70
2023-06-27T21:41:13.652Z,43.20
2023-06-27T21:43:41.053Z,42.40
2023-06-27T21:46:08.390Z,42.50
2023-06-27T21:48:35.709Z,42.70
2023-06-27T21:51:03.196Z,42.30
2023-06-27T21:53:30.512Z,42.50
2023-06-27T21:55:58.078Z,42.70
2023-06-27T21:58:25.451Z,42.90
2023-06-27T22:00:53.071Z,42.70
2023-06-27T22:03:27.193Z,43.00
2023-06-27T22:05:54.768Z,42.90
2023-06-27T22:08:22.245Z,43.30
2023-06-27T22:10:49.766Z,43.20
2023-06-27T22:13:17.121Z,43.50
2023-06-27T22:15:44.452Z,43.30
2023-06-27T22:18:11.917Z,44.10
2023-06-27T22:20:39.686Z,44.20
2023-06-27T22:23:07.633Z,44.50
2023-06-27T22:25:35.163Z,44.60
2023-06-27T22:28:03.207Z,45.00
2023-06-27T22:30:30.575Z,45.00
2023-06-27T22:32:58.445Z,44.60
2023-06-27T22:35:25.928Z,45.00
2023-06-27T22:37:53.348Z,44.70
2023-06-27T22:40:26.095Z,44.70
2023-06-27T22:42:53.549Z,45.10
2023-06-27T22:45:21.375Z,45.10
2023-06-27T22:47:49.125Z,45.20
2023-06-27T22:50:16.692Z,45.20
2023-06-27T22:52:44.063Z,45.40
2023-06-27T22:55:11.436Z,45.40
2023-06-27T22:57:38.893Z,45.80
2023-06-27T23:00:08.903Z,45.30
2023-06-27T23:02:36.408Z,45.60
2023-06-27T23:05:04.174Z,45.60
2023-06-27T23:07:32.688Z,45.80
2023-06-27T23:10:00.244Z,46.00
2023-06-27T23:12:27.695Z,45.80
2023-06-27T23:14:55.143Z,46.50
2023-06-27T23:17:22.667Z,46.90
2023-06-27T23:19:52.925Z,47.70
2023-06-27T23:22:20.804Z,47.80
2023-06-27T23:24:48.613Z,47.50
2023-06-27T23:27:16.059Z,46.40
2023-06-27T23:29:52.353Z,46.80
2023-06-27T23:32:25.140Z,47.20
2023-06-27T23:34:52.542Z,47.10
2023-06-27T23:37:19.816Z,47.10
2023-06-27T23:39:47.161Z,47.90
2023-06-27T23:42:14.545Z,46.80
2023-06-27T23:44:41.853Z,47.40
2023-06-27T23:47:09.314Z,47.50
2023-06-27T23:49:36.705Z,46.90
2023-06-27T23:52:04.806Z,47.10
2023-06-27T23:54:33.409Z,47.20
2023-06-27T23:57:00.811Z,47.20
2023-06-27T23:59:28.293Z,47.70
